Green Lawn Terrace, Louisiana
Current Conditions -  °F | °C
As of 5:53 AM on Monday 20 Oct 2014 (Local Time) from KMSY Reporting Station
Light Fog Light Fog  
Wind Chill: 59°   Ceiling: Unl
Heat Index: 59°   Visibility: 10mi
Dew Point: 55°   Wind: 0mph
Humidity: 87%   Direction: NA
Pressure: 30.03"   Gusts: NA
Location:  29.991°N, 90.2553°W
Report Text: KMSY 201053Z 00000KT 10SM MIFG FEW250 15/13 A3003 RMK AO2 SLP170 T01500128
Loading
Personal Weather Stations






























Interactive Weather Map
Tropical Storm Tracking
New forecast layout! Learn more

10-Day Weather Forecast

Advertisements
Track Severe Weather on mobile